עמוד ראשי
METAR-TAF:

METAR-TAF

שדות תעופה :

שטוטגרט, גרמניה

נמל התעופה שטוטגרט

קו רוחב: 48-41N, קו אורך: 009-13E, גובה: 396מטר

תצפית מזג אוויר נוכחית

הדו"ח נערך לפני 33דקות, בשעה 03:50 UTC
רוח 8קשר מכיוון דרום/דרום-מערב, משתנה בין דרום ו מערב/דרום-מערב
טמפרטורת 9 צלסיוס
לחות 93%
לחץ 1014 hPa
ראות 10 קילומטר או יותר
מעט עננים בגובה 1600רגל
עננים פזורים בגובה 4000רגל
עננים בינוניים בגובה 8000רגל

METAR: EDDS 220350Z 21008KT 180V250 9999 FEW016 SCT040 BKN080 09/08 Q1014

זמן: 05:23 (04:23 UTC)

תחזית

הדו"ח נערך לפני 5 שעות ו 23דקות, בשעה 23:00 UTC
תחזית בתוקף מ 22 ב 00 UTC עד 22 ב 24 UTC
רוח 7קשר מכיוון דרום-מערב
ראות 10 קילומטר או יותר
עננים בינוניים בגובה 2000רגל
הסתברות 30% :
זמנית מ -
22 ב 00 UTC עד 22 ב 10 UTC
גשם
יעשה מ
22 ב 06 UTC עד 22 ב 09 UTC
רוח 12קשר מכיוון דרום-מערב
זמנית מ -
22 ב 10 UTC עד 22 ב 24 UTC
רוח 15קשר מכיוון דרום-מערב עם משבים עד 30קשר
גשם

TAF: EDDS 212300Z 2200/2224 23007KT 9999 BKN020 PROB30 TEMPO 2200/2210 RA BECMG 2206/2209 23012KT TEMPO 2210/2224 22015G30KT RA

תצפיות ותחזיות מזג אוויר לגבי יותר מ- 4,000 שדות תעופה ברחבי העולם. דוחות METAR ו- TAF.

התחנות הזמינות מסומנות בנקודות צהובות ואדומות על גבי המפה.

העבר את העכבר לנקודה הצבעונית על מנת לראות את שם התחנה.

לאחר מכן, לחץ כדי לראות את תוכן ואת תחזיות מזג האוויר.

כדי לשנות את המפה: לחץ על הכפתורים הירוקים עם הפלוס השחור כדי להתקרב; על הכפתור הירוק עם המקף כדי להתרחק; או בחיצים הירוקים למפות סמוכות.


METAR-TAF: